createdAt,value
2024-03-16T00:05:42.366Z,29.70
2024-03-16T00:08:39.157Z,39.88
2024-03-16T00:11:31.707Z,33.47
2024-03-16T00:18:06.365Z,40.88
2024-03-16T00:21:03.107Z,39.72
2024-03-16T00:24:09.235Z,37.05
2024-03-16T00:27:21.770Z,37.00
2024-03-16T00:30:15.600Z,36.90
2024-03-16T00:33:32.125Z,54.60
2024-03-16T00:36:52.426Z,38.83
2024-03-16T00:39:55.617Z,56.33
2024-03-16T00:42:51.351Z,43.63
2024-03-16T00:46:18.865Z,43.08
2024-03-16T00:49:12.250Z,35.40
2024-03-16T00:54:56.641Z,38.38
2024-03-16T00:57:30.644Z,32.85
2024-03-16T01:00:01.443Z,25.67
2024-03-16T01:02:54.300Z,52.53
2024-03-16T01:05:58.070Z,49.95
2024-03-16T01:09:16.591Z,37.13
2024-03-16T01:12:26.995Z,32.60
2024-03-16T01:19:01.977Z,41.08
2024-03-16T01:54:47.465Z,20.85
2024-03-16T01:57:18.009Z,16.33
2024-03-16T02:00:02.014Z,14.80
2024-03-16T02:02:36.715Z,15.43
2024-03-16T02:05:08.892Z,15.27
2024-03-16T02:07:41.884Z,16.02
2024-03-16T02:10:13.135Z,18.15
2024-03-16T02:13:01.089Z,13.50
2024-03-16T02:15:59.965Z,13.57
2024-03-16T02:18:34.033Z,14.82
2024-03-16T02:21:15.032Z,13.25
2024-03-16T02:23:46.393Z,13.93
2024-03-16T02:26:16.879Z,17.98
2024-03-16T02:28:58.055Z,15.57
2024-03-16T02:32:05.622Z,14.32
2024-03-16T02:35:09.489Z,125.13
2024-03-16T02:38:31.552Z,109.80
2024-03-16T02:41:48.679Z,91.97
2024-03-16T02:44:56.996Z,63.17
2024-03-16T02:48:09.208Z,60.15
2024-03-16T02:54:14.676Z,48.58
2024-03-16T02:57:14.402Z,39.22
2024-03-16T03:03:22.829Z,161.77
2024-03-16T03:09:45.889Z,27.90
2024-03-16T03:12:17.828Z,14.60
2024-03-16T03:14:49.664Z,13.32
2024-03-16T03:17:20.171Z,15.88
2024-03-16T03:19:52.315Z,12.80
2024-03-16T03:22:23.190Z,14.43
2024-03-16T03:24:54.998Z,12.48
2024-03-16T03:27:26.585Z,14.30
2024-03-16T03:29:57.741Z,13.93
2024-03-16T03:32:29.274Z,14.85
2024-03-16T03:35:07.274Z,16.77
2024-03-16T03:38:27.455Z,11.80
2024-03-16T03:40:40.744Z,13.25
2024-03-16T03:43:19.993Z,10.30
2024-03-16T03:45:53.558Z,11.95
2024-03-16T03:48:28.076Z,9.77
2024-03-16T03:51:01.476Z,14.38
2024-03-16T03:54:24.087Z,94.03
2024-03-16T03:57:06.131Z,125.78
2024-03-16T04:00:10.047Z,118.72
2024-03-16T04:06:40.406Z,143.27
2024-03-16T04:09:45.177Z,140.27
2024-03-16T04:12:40.588Z,123.35
2024-03-16T04:15:46.478Z,122.13
2024-03-16T04:18:41.786Z,185.60
2024-03-16T04:21:47.348Z,84.22
2024-03-16T04:25:09.887Z,115.65
2024-03-16T04:28:22.998Z,106.97
2024-03-16T04:31:31.053Z,99.47
2024-03-16T04:34:39.722Z,78.50
2024-03-16T04:37:38.636Z,80.93
2024-03-16T04:46:59.671Z,62.22
2024-03-16T04:49:54.763Z,62.58
2024-03-16T04:52:57.895Z,45.03
2024-03-16T04:55:50.852Z,30.20
2024-03-16T04:58:33.938Z,21.63
2024-03-16T05:01:05.667Z,59.78
2024-03-16T05:03:36.244Z,230.80
2024-03-16T05:06:42.482Z,162.25
2024-03-16T05:09:43.734Z,176.18
2024-03-16T05:13:04.076Z,117.22
2024-03-16T05:16:11.837Z,89.60
2024-03-16T05:19:05.453Z,121.13
2024-03-16T05:25:03.554Z,83.38
2024-03-16T05:34:41.572Z,230.48
2024-03-16T05:40:52.786Z,253.27
2024-03-16T05:43:59.483Z,198.75
2024-03-16T05:47:02.642Z,219.10
2024-03-16T05:49:52.511Z,176.23
2024-03-16T05:52:59.569Z,159.88
2024-03-16T05:56:05.466Z,108.53
2024-03-16T05:59:05.817Z,116.28
2024-03-16T06:02:04.605Z,122.75
2024-03-16T06:05:13.140Z,115.10
2024-03-16T06:08:16.672Z,121.07
2024-03-16T06:11:30.402Z,90.68
2024-03-16T06:14:31.606Z,95.82
2024-03-16T06:17:37.225Z,98.22
2024-03-16T06:26:53.086Z,121.13
2024-03-16T06:29:55.505Z,137.00
2024-03-16T06:33:11.961Z,98.38
2024-03-16T06:36:09.586Z,62.80
2024-03-16T06:42:14.564Z,50.00
2024-03-16T06:51:29.481Z,108.25
2024-03-16T06:54:38.838Z,98.65
2024-03-16T06:57:49.363Z,100.80
2024-03-16T07:00:39.625Z,89.07
2024-03-16T07:03:57.589Z,150.43
2024-03-16T07:07:02.570Z,65.25
2024-03-16T07:10:08.870Z,91.47
2024-03-16T07:12:51.549Z,68.70
2024-03-16T07:15:23.713Z,56.08
2024-03-16T07:17:54.577Z,53.08
2024-03-16T07:20:26.288Z,96.13
2024-03-16T07:22:57.567Z,108.05
2024-03-16T07:26:02.913Z,105.40
2024-03-16T07:29:12.905Z,127.15
2024-03-16T07:32:06.214Z,116.93
2024-03-16T07:38:25.395Z,55.17
2024-03-16T07:41:37.279Z,65.68
2024-03-16T07:44:54.405Z,77.93
2024-03-16T07:50:50.502Z,72.53
2024-03-16T07:53:47.105Z,38.38
2024-03-16T08:09:28.751Z,49.95
2024-03-16T08:15:40.114Z,44.35
2024-03-16T08:24:43.770Z,51.03
2024-03-16T08:28:13.997Z,61.10
2024-03-16T08:31:40.760Z,52.20
2024-03-16T08:34:36.389Z,60.33
2024-03-16T08:37:34.625Z,48.92
2024-03-16T08:40:56.788Z,43.25
2024-03-16T08:43:57.627Z,59.38
2024-03-16T08:50:13.418Z,150.38
2024-03-16T08:59:00.504Z,48.25
2024-03-16T09:01:31.701Z,43.53
2024-03-16T09:04:03.745Z,45.05
2024-03-16T09:06:34.451Z,46.67
2024-03-16T09:09:19.824Z,59.97
2024-03-16T09:11:51.503Z,128.80
2024-03-16T09:14:23.151Z,136.23
2024-03-16T09:16:54.199Z,132.20
2024-03-16T09:19:25.809Z,114.88
2024-03-16T09:22:08.851Z,129.60
2024-03-16T09:25:05.393Z,102.22
2024-03-16T09:27:52.982Z,96.75
2024-03-16T09:30:24.634Z,96.35
2024-03-16T09:32:55.669Z,93.82
2024-03-16T09:35:27.152Z,79.18
2024-03-16T09:37:57.873Z,75.63
2024-03-16T09:40:29.012Z,101.25
